Time;durP1;ratioP1;P1;durP2;ratioP2;P2;SDS_P1;SDS_P2;PMS_P1;PMS_P2;Temp;Humidity;BMP_temperature;BMP_pressure;BME280_temperature;BME280_humidity;BME280_pressure;Samples;Min_cycle;Max_cycle;Signal;HPM_P1;HPM_P2
2022/10/27 00:02:21;;;;;;;5.47;2.33;;;13.80;99.90;;;;;;4997133;28;20042;-82
2022/10/27 00:04:49;;;;;;;4.28;2.40;;;13.80;99.90;;;;;;4965621;28;20023;-81
2022/10/27 00:07:14;;;;;;;5.25;2.10;;;13.90;99.90;;;;;;4963557;28;20485;-81
2022/10/27 00:09:40;;;;;;;3.63;2.08;;;13.90;99.90;;;;;;4965973;28;20054;-82
2022/10/27 00:12:06;;;;;;;3.88;1.92;;;14.00;99.90;;;;;;4996379;28;20046;-82
2022/10/27 00:14:32;;;;;;;5.90;2.20;;;14.00;99.90;;;;;;4998992;28;20054;-81
2022/10/27 00:16:58;;;;;;;4.50;1.98;;;13.90;99.90;;;;;;4991322;28;20010;-81
2022/10/27 00:19:24;;;;;;;3.42;1.75;;;13.90;99.90;;;;;;5003253;28;20034;-82
2022/10/27 00:21:50;;;;;;;3.88;2.08;;;13.80;99.90;;;;;;4987216;28;20006;-81
2022/10/27 00:24:17;;;;;;;3.67;2.08;;;13.80;99.90;;;;;;5007298;28;20514;-81
2022/10/27 00:26:43;;;;;;;4.00;2.13;;;13.70;99.90;;;;;;4980506;28;20088;-80
2022/10/27 00:29:09;;;;;;;4.47;2.05;;;13.60;99.90;;;;;;4979541;28;20112;-81
2022/10/27 00:31:34;;;;;;;3.72;2.00;;;13.60;99.90;;;;;;4960750;28;20049;-81
2022/10/27 00:34:00;;;;;;;4.78;2.00;;;13.50;99.90;;;;;;4979016;28;20030;-81
2022/10/27 00:36:26;;;;;;;3.72;2.10;;;13.50;99.90;;;;;;4979523;28;20050;-81
2022/10/27 00:38:53;;;;;;;3.85;2.10;;;13.50;99.90;;;;;;4979790;28;20022;-81
2022/10/27 00:41:35;;;;;;;3.65;2.10;;;13.40;99.90;;;;;;4979781;28;20523;-81
2022/10/27 00:44:40;;;;;;;2.92;1.98;;;13.40;99.90;;;;;;4979683;28;20063;-81
2022/10/27 00:47:09;;;;;;;3.97;2.17;;;13.40;99.90;;;;;;4974218;28;20038;-82
2022/10/27 00:50:00;;;;;;;4.03;2.13;;;13.40;99.90;;;;;;4966895;28;20133;-81
2022/10/27 00:52:33;;;;;;;4.40;2.25;;;13.40;99.90;;;;;;4978733;28;20070;-82
2022/10/27 00:55:07;;;;;;;4.70;2.23;;;13.30;99.90;;;;;;4989385;28;20023;-82
2022/10/27 00:57:33;;;;;;;5.18;2.38;;;13.30;99.90;;;;;;4998219;28;20041;-82
2022/10/27 01:00:03;;;;;;;5.00;2.25;;;13.30;99.90;;;;;;4978695;28;20030;-82
2022/10/27 01:02:33;;;;;;;3.53;2.10;;;13.20;99.90;;;;;;4978444;28;20038;-81
2022/10/27 01:05:23;;;;;;;4.93;2.40;;;13.20;99.90;;;;;;4974851;28;20034;-82
2022/10/27 01:07:51;;;;;;;3.70;2.20;;;13.20;99.90;;;;;;4978171;28;20145;-82
2022/10/27 01:10:17;;;;;;;3.67;2.03;;;13.10;99.90;;;;;;4972626;28;20042;-82
2022/10/27 01:12:44;;;;;;;4.38;2.40;;;13.10;99.90;;;;;;4955073;28;20086;-82
2022/10/27 01:15:11;;;;;;;5.10;2.75;;;13.10;99.90;;;;;;4974578;28;20024;-81
2022/10/27 01:17:50;;;;;;;4.30;2.20;;;13.00;99.90;;;;;;4969008;28;20108;-82
2022/10/27 01:20:27;;;;;;;5.05;2.30;;;13.00;99.90;;;;;;4978084;28;20018;-82
2022/10/27 01:23:21;;;;;;;4.10;2.60;;;13.00;99.90;;;;;;4981591;28;20049;-82
2022/10/27 01:26:06;;;;;;;4.30;2.75;;;12.90;99.90;;;;;;4959289;28;20026;-81
2022/10/27 01:28:54;;;;;;;3.60;2.92;;;12.90;99.90;;;;;;4974444;28;20030;-81
2022/10/27 01:31:28;;;;;;;5.50;3.70;;;12.80;99.90;;;;;;4977993;28;20023;-81
2022/10/27 01:34:09;;;;;;;7.45;4.63;;;12.80;99.90;;;;;;4995033;28;20026;-81
2022/10/27 01:36:45;;;;;;;6.00;3.92;;;12.80;99.90;;;;;;4977732;28;20470;-81
2022/10/27 01:39:18;;;;;;;7.35;4.68;;;12.70;99.90;;;;;;4976918;28;20463;-81
2022/10/27 01:41:55;;;;;;;8.20;4.77;;;12.80;99.90;;;;;;4977752;28;20412;-81
2022/10/27 01:44:27;;;;;;;7.13;4.82;;;12.70;99.90;;;;;;4977497;28;20421;-81
2022/10/27 01:46:54;;;;;;;7.13;4.55;;;12.70;99.90;;;;;;4983722;28;20034;-81
2022/10/27 01:49:20;;;;;;;7.45;4.72;;;12.70;99.90;;;;;;4973943;28;20029;-81
2022/10/27 01:51:47;;;;;;;10.55;6.00;;;12.70;99.90;;;;;;4970564;28;20030;-81
2022/10/27 01:54:13;;;;;;;6.53;5.07;;;12.60;99.90;;;;;;4976498;28;20647;-81
2022/10/27 01:57:00;;;;;;;8.02;5.68;;;12.60;99.90;;;;;;4976357;28;20113;-81
2022/10/27 01:59:44;;;;;;;8.43;5.57;;;12.70;99.90;;;;;;4977519;28;20022;-81
2022/10/27 02:02:26;;;;;;;6.90;5.15;;;12.70;99.90;;;;;;4993337;28;20030;-82
2022/10/27 02:05:00;;;;;;;6.57;5.07;;;12.60;99.90;;;;;;4963838;28;20378;-81
2022/10/27 02:08:11;;;;;;;8.27;5.57;;;12.60;99.90;;;;;;4979991;28;20049;-81
2022/10/27 02:10:59;;;;;;;6.93;4.20;;;12.70;99.90;;;;;;4989555;28;20069;-80
2022/10/27 02:13:25;;;;;;;7.07;4.80;;;12.70;99.90;;;;;;4984091;28;20541;-80
2022/10/27 02:16:02;;;;;;;6.78;4.28;;;12.70;99.90;;;;;;4986235;28;20125;-80
2022/10/27 02:18:34;;;;;;;5.45;3.90;;;12.80;99.90;;;;;;5008918;28;20387;-81
2022/10/27 02:21:06;;;;;;;6.40;3.97;;;12.80;99.90;;;;;;4978094;28;20026;-82
2022/10/27 02:23:34;;;;;;;5.65;4.10;;;12.90;99.90;;;;;;4975110;28;20035;-81
2022/10/27 02:26:19;;;;;;;7.60;3.50;;;12.90;99.90;;;;;;4985182;28;20051;-81
2022/10/27 02:28:55;;;;;;;5.13;3.75;;;12.90;99.90;;;;;;4977875;28;20018;-80
2022/10/27 02:31:25;;;;;;;4.82;3.38;;;12.90;99.90;;;;;;4977788;28;20081;-81
2022/10/27 02:33:52;;;;;;;5.50;3.30;;;12.90;99.90;;;;;;4977718;28;20018;-81
2022/10/27 02:36:18;;;;;;;5.43;3.35;;;12.90;99.90;;;;;;4994631;28;20018;-81
2022/10/27 02:38:44;;;;;;;5.50;3.10;;;12.80;99.90;;;;;;4994529;28;20038;-80
2022/10/27 02:41:09;;;;;;;6.10;2.92;;;12.90;99.90;;;;;;4976410;28;20027;-81
2022/10/27 02:43:36;;;;;;;5.85;3.25;;;12.90;99.90;;;;;;4976658;28;20030;-81
2022/10/27 02:46:02;;;;;;;5.35;2.95;;;12.90;99.90;;;;;;4977315;28;20023;-81
2022/10/27 02:48:27;;;;;;;4.93;2.92;;;12.90;99.90;;;;;;4976666;28;20034;-81
2022/10/27 02:50:53;;;;;;;4.00;2.58;;;12.90;99.90;;;;;;4978406;28;20088;-80
2022/10/27 02:53:19;;;;;;;4.75;2.83;;;12.90;99.90;;;;;;4972607;28;20061;-81
2022/10/27 02:55:44;;;;;;;6.60;2.85;;;12.90;99.90;;;;;;4980685;28;20563;-81
2022/10/27 02:58:11;;;;;;;5.28;2.75;;;12.90;99.90;;;;;;4980895;28;20486;-81
2022/10/27 03:00:37;;;;;;;4.45;2.50;;;12.80;99.90;;;;;;4985553;28;20028;-81
2022/10/27 03:03:02;;;;;;;8.90;2.60;;;12.80;99.90;;;;;;4998521;28;20065;-81
2022/10/27 03:05:28;;;;;;;3.92;2.47;;;12.80;99.90;;;;;;4980771;28;20134;-81
2022/10/27 03:07:54;;;;;;;3.03;2.30;;;12.80;99.90;;;;;;4971760;28;20019;-81
2022/10/27 03:10:19;;;;;;;4.10;2.55;;;12.80;99.90;;;;;;4996350;28;20119;-81
2022/10/27 03:12:46;;;;;;;5.28;2.83;;;12.70;99.90;;;;;;5000252;28;20081;-80
2022/10/27 03:15:12;;;;;;;4.30;2.75;;;12.70;99.90;;;;;;4968237;28;20041;-80
2022/10/27 03:17:48;;;;;;;5.00;2.80;;;12.70;99.90;;;;;;4964480;28;20109;-81
2022/10/27 03:20:15;;;;;;;4.18;2.65;;;12.70;99.90;;;;;;4998162;28;20026;-80
2022/10/27 03:22:42;;;;;;;4.47;3.40;;;12.70;99.90;;;;;;4976080;28;20026;-81
2022/10/27 03:25:10;;;;;;;5.80;3.05;;;12.60;99.90;;;;;;4963979;28;20087;-80
2022/10/27 03:27:38;;;;;;;3.70;2.58;;;12.60;99.90;;;;;;4997823;28;20038;-80
2022/10/27 03:30:05;;;;;;;4.90;3.08;;;12.60;99.90;;;;;;4997888;28;20033;-81
2022/10/27 03:32:35;;;;;;;5.38;3.00;;;12.60;99.90;;;;;;4966490;28;20081;-81
2022/10/27 03:35:01;;;;;;;5.18;2.53;;;12.60;99.90;;;;;;4980270;28;20513;-81
2022/10/27 03:37:26;;;;;;;4.03;2.53;;;12.60;99.90;;;;;;4968910;28;20038;-81
2022/10/27 03:39:52;;;;;;;4.40;3.00;;;12.50;99.90;;;;;;4979790;28;20471;-81
2022/10/27 03:42:18;;;;;;;4.90;2.70;;;12.50;99.90;;;;;;4997200;28;20069;-81
2022/10/27 03:44:44;;;;;;;5.20;2.85;;;12.50;99.90;;;;;;4965419;28;20018;-80
2022/10/27 03:47:09;;;;;;;4.93;3.00;;;12.40;99.90;;;;;;4979907;28;20419;-81
2022/10/27 03:49:35;;;;;;;4.43;3.03;;;12.40;99.90;;;;;;4978744;28;20070;-81
2022/10/27 03:52:01;;;;;;;4.07;2.90;;;12.40;99.90;;;;;;4964339;28;20030;-81
2022/10/27 03:54:31;;;;;;;4.30;2.97;;;12.40;99.90;;;;;;5016834;28;20026;-81
2022/10/27 03:56:57;;;;;;;4.55;2.70;;;12.40;99.90;;;;;;4993755;28;20030;-81
2022/10/27 03:59:23;;;;;;;3.65;2.63;;;12.30;99.90;;;;;;4984230;28;20025;-81
2022/10/27 04:01:49;;;;;;;5.05;2.90;;;12.30;99.90;;;;;;5021674;28;20022;-80
2022/10/27 04:04:14;;;;;;;5.22;3.53;;;12.40;99.90;;;;;;5023232;28;20056;-81
2022/10/27 04:06:42;;;;;;;5.38;3.35;;;12.30;99.90;;;;;;5002215;28;20022;-81
2022/10/27 04:09:07;;;;;;;4.15;2.90;;;12.30;99.90;;;;;;4992531;28;20022;-81
2022/10/27 04:11:33;;;;;;;5.75;3.15;;;12.30;99.90;;;;;;4998171;28;20038;-81
2022/10/27 04:13:59;;;;;;;4.90;3.10;;;12.30;99.90;;;;;;4999837;28;20026;-81
2022/10/27 04:16:26;;;;;;;5.53;3.15;;;12.30;99.90;;;;;;5017067;28;20117;-81
2022/10/27 04:18:51;;;;;;;4.13;2.63;;;12.30;99.90;;;;;;4995774;28;20367;-81
2022/10/27 04:21:17;;;;;;;4.03;3.05;;;12.30;99.90;;;;;;4989504;28;20029;-81
2022/10/27 04:23:44;;;;;;;5.13;2.70;;;12.30;99.90;;;;;;4999720;28;20045;-81
2022/10/27 04:26:10;;;;;;;4.47;2.85;;;12.30;99.90;;;;;;4991348;28;20475;-81
2022/10/27 04:28:36;;;;;;;5.38;3.03;;;12.30;99.90;;;;;;4993250;28;20038;-80
2022/10/27 04:31:01;;;;;;;3.80;2.90;;;12.20;99.90;;;;;;4982227;28;20019;-80
2022/10/27 04:33:27;;;;;;;6.30;3.15;;;12.20;99.90;;;;;;4996558;28;20040;-81
2022/10/27 04:35:53;;;;;;;5.03;2.65;;;12.20;99.90;;;;;;4996616;28;20474;-81
2022/10/27 04:38:19;;;;;;;3.53;2.33;;;12.30;99.90;;;;;;4996650;28;20018;-81
2022/10/27 04:40:44;;;;;;;3.95;2.80;;;12.20;99.90;;;;;;4979045;28;20026;-81
2022/10/27 04:43:10;;;;;;;4.10;2.58;;;12.30;99.90;;;;;;4990652;28;20090;-81
2022/10/27 04:45:37;;;;;;;4.10;2.47;;;12.20;99.90;;;;;;4989854;28;20039;-81
2022/10/27 04:48:03;;;;;;;4.35;2.80;;;12.20;99.90;;;;;;4995339;28;20058;-81
2022/10/27 04:50:29;;;;;;;3.15;2.17;;;12.20;99.90;;;;;;4990907;28;20022;-80
2022/10/27 04:53:02;;;;;;;4.30;2.28;;;12.20;99.90;;;;;;4992782;28;20051;-81
2022/10/27 04:55:30;;;;;;;5.10;2.60;;;12.20;99.90;;;;;;4982535;28;20022;-81
2022/10/27 04:57:56;;;;;;;4.07;2.38;;;12.20;99.90;;;;;;4994467;28;20027;-80
2022/10/27 05:00:23;;;;;;;3.28;2.30;;;12.20;99.90;;;;;;4992128;28;20482;-81
2022/10/27 05:02:56;;;;;;;4.15;2.35;;;12.10;99.90;;;;;;4986896;28;20035;-80
2022/10/27 05:05:23;;;;;;;2.97;1.90;;;12.10;99.90;;;;;;4994389;28;20019;-81
2022/10/27 05:07:57;;;;;;;3.70;2.30;;;12.10;99.90;;;;;;4977725;28;20042;-80
2022/10/27 05:10:24;;;;;;;3.95;2.20;;;12.10;99.90;;;;;;4995904;28;20026;-81
2022/10/27 05:12:50;;;;;;;3.53;2.30;;;12.10;99.90;;;;;;4987824;28;20031;-81
2022/10/27 05:15:17;;;;;;;4.22;2.38;;;12.10;99.90;;;;;;4994890;28;20030;-81
2022/10/27 05:17:45;;;;;;;5.15;2.30;;;12.10;99.90;;;;;;4995152;28;20045;-80
2022/10/27 05:20:11;;;;;;;4.53;2.47;;;12.10;99.90;;;;;;4994331;28;20089;-80
2022/10/27 05:22:38;;;;;;;3.75;2.40;;;12.10;99.90;;;;;;4994157;28;20026;-81
2022/10/27 05:25:07;;;;;;;3.42;2.28;;;12.10;99.90;;;;;;4994287;28;20378;-80
2022/10/27 05:27:34;;;;;;;5.38;2.28;;;12.10;99.90;;;;;;4996820;28;20062;-81
2022/10/27 05:29:59;;;;;;;4.53;2.47;;;12.10;99.90;;;;;;4991492;28;20450;-80
2022/10/27 05:32:25;;;;;;;4.32;2.58;;;12.10;99.90;;;;;;4994516;28;20033;-81
2022/10/27 05:34:51;;;;;;;3.97;2.45;;;12.00;99.90;;;;;;4982700;28;20034;-81
2022/10/27 05:37:16;;;;;;;4.72;2.33;;;12.00;99.90;;;;;;5013753;28;20030;-81
2022/10/27 05:39:42;;;;;;;5.25;2.47;;;12.00;99.90;;;;;;5006644;28;20109;-80
2022/10/27 05:42:08;;;;;;;5.47;2.72;;;12.00;99.90;;;;;;4995721;28;20386;-81
2022/10/27 05:44:34;;;;;;;4.13;2.42;;;12.00;99.90;;;;;;4980716;28;20093;-81
2022/10/27 05:46:59;;;;;;;4.80;2.50;;;12.00;99.90;;;;;;4997561;28;20441;-81
2022/10/27 05:49:25;;;;;;;4.78;2.75;;;12.00;99.90;;;;;;4996950;28;20486;-81
2022/10/27 05:51:51;;;;;;;3.95;2.50;;;12.00;99.90;;;;;;4980300;28;20498;-81
2022/10/27 05:54:18;;;;;;;4.80;2.80;;;12.00;99.90;;;;;;4999960;28;20058;-81
2022/10/27 05:56:44;;;;;;;5.55;2.80;;;12.00;99.90;;;;;;5019936;28;20034;-81
2022/10/27 05:59:11;;;;;;;4.93;2.65;;;12.00;99.90;;;;;;5014239;28;20022;-81
2022/10/27 06:01:37;;;;;;;3.63;2.53;;;12.00;99.90;;;;;;4977967;28;20104;-80
2022/10/27 06:04:03;;;;;;;4.00;2.55;;;11.90;99.90;;;;;;4978786;28;20447;-80
2022/10/27 06:06:29;;;;;;;5.55;2.78;;;12.00;99.90;;;;;;4959841;28;20104;-81
2022/10/27 06:08:56;;;;;;;5.80;2.55;;;11.90;99.90;;;;;;4977996;28;20462;-80
2022/10/27 06:11:22;;;;;;;5.88;2.45;;;12.00;99.90;;;;;;4978075;28;20030;-81
2022/10/27 06:13:54;;;;;;;3.25;2.33;;;12.00;99.90;;;;;;4961935;28;20029;-81
2022/10/27 06:16:24;;;;;;;5.32;2.63;;;12.00;99.90;;;;;;4977892;28;20089;-81
2022/10/27 06:18:50;;;;;;;4.40;2.78;;;12.00;99.90;;;;;;4977913;28;20089;-81
2022/10/27 06:21:19;;;;;;;4.47;2.53;;;12.00;99.90;;;;;;4977955;28;20049;-81
2022/10/27 06:23:49;;;;;;;5.57;3.20;;;12.00;99.90;;;;;;4962172;28;20031;-81
2022/10/27 06:26:15;;;;;;;4.07;2.53;;;12.10;99.90;;;;;;4977482;28;20042;-80
2022/10/27 06:28:42;;;;;;;4.85;2.53;;;12.10;99.90;;;;;;4977108;28;20116;-81
2022/10/27 06:31:08;;;;;;;4.82;2.55;;;12.10;99.90;;;;;;4977157;28;20117;-80
2022/10/27 06:33:33;;;;;;;5.95;2.53;;;12.10;99.90;;;;;;4994230;28;20117;-81
2022/10/27 06:36:00;;;;;;;4.65;2.53;;;12.10;99.90;;;;;;4975220;28;20098;-81
2022/10/27 06:38:26;;;;;;;6.20;3.20;;;12.10;99.90;;;;;;4961406;28;20073;-80
2022/10/27 06:40:52;;;;;;;5.55;2.33;;;12.10;99.90;;;;;;4980988;28;20053;-80
2022/10/27 06:43:18;;;;;;;4.82;2.65;;;12.10;99.90;;;;;;4965831;28;20023;-81
2022/10/27 06:45:48;;;;;;;4.95;2.85;;;12.10;99.90;;;;;;4967800;28;20034;-81
2022/10/27 06:48:14;;;;;;;6.88;3.60;;;12.20;99.90;;;;;;4974860;28;20056;-81
2022/10/27 06:50:40;;;;;;;6.32;3.42;;;12.20;99.90;;;;;;4971030;28;20022;-80
2022/10/27 06:53:06;;;;;;;5.60;2.92;;;12.20;99.90;;;;;;4976627;28;20042;-81
2022/10/27 06:55:33;;;;;;;4.55;2.97;;;12.30;99.90;;;;;;4976831;28;20026;-81
2022/10/27 06:57:59;;;;;;;5.95;2.92;;;12.40;99.90;;;;;;4976614;28;20049;-81
2022/10/27 07:00:25;;;;;;;3.85;2.38;;;12.40;99.90;;;;;;4977702;28;20037;-81
2022/10/27 07:02:53;;;;;;;5.18;3.03;;;12.50;99.90;;;;;;4966781;28;20030;-81
2022/10/27 07:05:19;;;;;;;4.47;2.70;;;12.50;99.90;;;;;;4965402;28;20034;-81
2022/10/27 07:07:52;;;;;;;5.88;3.05;;;12.50;99.90;;;;;;4974746;28;20029;-81
2022/10/27 07:10:19;;;;;;;4.80;2.85;;;12.60;99.90;;;;;;4979384;28;20157;-80
2022/10/27 07:12:54;;;;;;;4.78;2.72;;;12.60;99.90;;;;;;4998767;28;20486;-80
2022/10/27 07:15:21;;;;;;;5.35;2.65;;;12.70;99.90;;;;;;5002496;28;20030;-81
2022/10/27 07:17:46;;;;;;;4.22;2.80;;;12.70;99.90;;;;;;4993026;28;20035;-80
2022/10/27 07:20:13;;;;;;;9.55;3.25;;;12.70;99.90;;;;;;4993324;28;20359;-80
2022/10/27 07:22:40;;;;;;;5.03;2.67;;;12.80;99.90;;;;;;4959942;28;20121;-80
2022/10/27 07:25:07;;;;;;;4.35;2.75;;;12.80;99.90;;;;;;4976272;28;20425;-80
2022/10/27 07:27:32;;;;;;;4.38;2.78;;;12.90;99.90;;;;;;4992892;28;20482;-80
2022/10/27 07:30:03;;;;;;;4.75;2.78;;;12.90;99.90;;;;;;4975376;28;20029;-80
2022/10/27 07:32:29;;;;;;;5.03;2.33;;;13.00;99.90;;;;;;4994152;28;20121;-81
2022/10/27 07:34:54;;;;;;;5.60;2.72;;;13.00;99.90;;;;;;4980274;28;20113;-81
2022/10/27 07:37:20;;;;;;;5.82;2.78;;;13.00;99.90;;;;;;4976532;28;20046;-81
2022/10/27 07:39:48;;;;;;;4.82;3.05;;;13.10;99.90;;;;;;4992948;28;20108;-81
2022/10/27 07:42:16;;;;;;;4.82;2.83;;;13.10;99.90;;;;;;4961381;28;20035;-81
2022/10/27 07:44:44;;;;;;;5.28;2.63;;;13.20;99.90;;;;;;4972570;28;20105;-81
2022/10/27 07:47:10;;;;;;;4.72;2.70;;;13.30;99.90;;;;;;4981085;28;20031;-81
2022/10/27 07:49:36;;;;;;;4.97;2.90;;;13.30;99.90;;;;;;4999707;28;20060;-81
2022/10/27 07:52:02;;;;;;;4.70;2.70;;;13.40;99.90;;;;;;4997357;28;20015;-81
2022/10/27 07:54:28;;;;;;;3.95;2.53;;;13.40;99.90;;;;;;5006315;28;20026;-82
2022/10/27 07:56:54;;;;;;;4.82;2.67;;;13.50;99.90;;;;;;5013026;28;20023;-81
2022/10/27 07:59:20;;;;;;;5.57;3.08;;;13.50;99.90;;;;;;4997587;28;20113;-81
2022/10/27 08:01:47;;;;;;;3.95;2.13;;;13.60;99.90;;;;;;4996511;28;20026;-80
2022/10/27 08:04:13;;;;;;;4.70;2.65;;;13.60;99.90;;;;;;4998852;28;20506;-80
2022/10/27 08:06:42;;;;;;;5.22;3.22;;;13.70;99.90;;;;;;5002467;28;20109;-81
2022/10/27 08:09:11;;;;;;;5.53;2.95;;;13.70;99.90;;;;;;4975660;28;20057;-81
2022/10/27 08:11:38;;;;;;;6.00;2.90;;;13.70;99.90;;;;;;4978979;28;20026;-81
2022/10/27 08:14:05;;;;;;;5.07;2.55;;;13.80;99.90;;;;;;4969850;28;20072;-81
2022/10/27 08:16:31;;;;;;;7.55;2.95;;;13.90;99.90;;;;;;4996659;28;20030;-81
2022/10/27 08:18:57;;;;;;;5.18;3.05;;;13.90;99.90;;;;;;4978925;28;20412;-82
2022/10/27 08:21:24;;;;;;;6.43;2.33;;;14.00;99.90;;;;;;4975584;28;20034;-81
2022/10/27 08:23:50;;;;;;;4.65;2.58;;;14.20;99.90;;;;;;4979807;28;20029;-81
2022/10/27 08:26:16;;;;;;;5.80;2.92;;;14.20;99.90;;;;;;4977740;28;20041;-81
2022/10/27 08:28:42;;;;;;;4.00;2.63;;;14.40;99.90;;;;;;4992396;28;20029;-81
2022/10/27 08:31:09;;;;;;;4.80;2.42;;;14.50;99.90;;;;;;4999711;28;20026;-81
2022/10/27 08:33:35;;;;;;;4.32;2.42;;;14.70;99.90;;;;;;4980355;28;20105;-81
2022/10/27 08:36:01;;;;;;;5.40;2.75;;;14.90;99.90;;;;;;4977742;28;20029;-81
2022/10/27 08:38:31;;;;;;;5.32;2.70;;;15.10;99.90;;;;;;4982155;28;20023;-81
2022/10/27 08:41:21;;;;;;;3.63;2.35;;;15.20;99.90;;;;;;4995453;28;20029;-81
2022/10/27 08:44:07;;;;;;;3.33;2.33;;;15.30;99.90;;;;;;4982840;28;20027;-81
2022/10/27 08:47:12;;;;;;;3.97;2.22;;;15.50;99.90;;;;;;4991341;28;20044;-81
2022/10/27 08:50:04;;;;;;;2.50;1.80;;;15.60;99.90;;;;;;5000730;28;20497;-82
2022/10/27 08:52:38;;;;;;;3.08;1.77;;;15.70;99.90;;;;;;4967138;28;20046;-81
2022/10/27 08:55:12;;;;;;;4.47;1.92;;;15.90;99.90;;;;;;4977490;28;20386;-81
2022/10/27 08:57:47;;;;;;;3.08;1.83;;;16.20;99.90;;;;;;4974465;28;20034;-81
2022/10/27 09:00:22;;;;;;;4.45;2.13;;;16.70;99.90;;;;;;4997264;28;20105;-82
2022/10/27 09:03:26;;;;;;;3.50;2.05;;;17.30;99.90;;;;;;4972642;28;20029;-81
2022/10/27 09:06:18;;;;;;;3.30;1.60;;;18.20;99.90;;;;;;4971860;28;20027;-81
2022/10/27 09:08:53;;;;;;;6.85;1.85;;;18.90;99.90;;;;;;4977304;28;20025;-82
2022/10/27 09:11:38;;;;;;;2.97;1.80;;;19.40;99.90;;;;;;4974129;28;20026;-82
2022/10/27 09:14:44;;;;;;;2.78;1.60;;;19.40;99.90;;;;;;4993484;28;20124;-83
2022/10/27 09:17:41;;;;;;;3.42;1.50;;;19.50;99.90;;;;;;4980274;28;20022;-83
2022/10/27 09:20:30;;;;;;;2.33;1.50;;;19.70;99.90;;;;;;4977255;28;20124;-82
2022/10/27 09:23:10;;;;;;;4.70;1.60;;;20.10;99.90;;;;;;4956671;28;20041;-81
2022/10/27 09:25:51;;;;;;;3.10;1.40;;;20.40;99.90;;;;;;4977320;28;20034;-81
2022/10/27 09:28:36;;;;;;;2.58;1.20;;;21.30;99.90;;;;;;4965274;28;20037;-82
2022/10/27 09:31:17;;;;;;;2.95;1.08;;;22.10;99.90;;;;;;4967191;28;20366;-82
2022/10/27 09:34:06;;;;;;;3.65;1.20;;;22.50;99.90;;;;;;4987298;28;20049;-82
2022/10/27 09:36:32;;;;;;;2.72;1.15;;;22.90;99.90;;;;;;4973655;28;20034;-83
2022/10/27 09:38:58;;;;;;;2.35;1.10;;;22.90;99.90;;;;;;4960495;28;20018;-82
2022/10/27 09:41:24;;;;;;;1.98;1.10;;;22.90;99.90;;;;;;4979194;28;20030;-80
2022/10/27 09:43:54;;;;;;;2.30;1.17;;;22.80;99.90;;;;;;4984291;28;20038;-82
2022/10/27 09:46:24;;;;;;;2.30;1.10;;;22.90;99.90;;;;;;4991118;28;20022;-83
2022/10/27 09:49:03;;;;;;;1.77;0.93;;;23.00;99.90;;;;;;5003801;28;20062;-83
2022/10/27 09:51:52;;;;;;;1.25;0.70;;;23.20;99.90;;;;;;5009479;28;20010;-82
2022/10/27 09:54:35;;;;;;;2.38;0.93;;;23.30;99.90;;;;;;4985200;28;20121;-81
2022/10/27 09:57:22;;;;;;;1.80;0.73;;;23.20;99.90;;;;;;4976180;28;20022;-81
2022/10/27 10:00:20;;;;;;;1.98;1.10;;;22.60;99.90;;;;;;4975618;28;20093;-80
2022/10/27 10:03:20;;;;;;;2.38;0.80;;;22.20;99.90;;;;;;4950905;28;20116;-83
2022/10/27 10:06:07;;;;;;;3.47;1.10;;;22.10;99.90;;;;;;4991460;28;20072;-83
2022/10/27 10:08:43;;;;;;;2.53;1.00;;;22.10;99.90;;;;;;4976741;28;20049;-82
2022/10/27 10:11:25;;;;;;;2.20;0.90;;;21.90;99.90;;;;;;4960189;28;20030;-83
2022/10/27 10:13:59;;;;;;;1.98;0.80;;;21.70;99.90;;;;;;4981403;28;20038;-83
2022/10/27 10:16:27;;;;;;;1.95;0.73;;;21.50;99.90;;;;;;4989456;28;20027;-83
2022/10/27 10:19:04;;;;;;;1.85;0.98;;;21.50;99.90;;;;;;4980251;28;20133;-83
2022/10/27 10:21:52;;;;;;;1.70;0.88;;;21.90;99.90;;;;;;4992087;28;20094;-83
2022/10/27 10:24:24;;;;;;;2.63;0.93;;;22.80;99.90;;;;;;4979460;28;20109;-83
2022/10/27 10:26:56;;;;;;;2.17;0.63;;;23.50;99.90;;;;;;4978674;28;20171;-82
2022/10/27 10:29:38;;;;;;;1.55;0.70;;;24.10;99.90;;;;;;5001430;28;20036;-82
2022/10/27 10:32:15;;;;;;;1.55;0.68;;;24.80;99.90;;;;;;4972638;28;20046;-80
2022/10/27 10:34:46;;;;;;;1.55;0.70;;;25.60;99.90;;;;;;4978394;28;20415;-82
2022/10/27 10:37:45;;;;;;;1.55;0.73;;;26.40;99.90;;;;;;4973739;28;20030;-81
2022/10/27 10:40:24;;;;;;;2.05;0.70;;;26.80;99.90;;;;;;4993908;28;20475;-83
2022/10/27 10:43:04;;;;;;;1.35;0.57;;;26.60;99.90;;;;;;4975005;28;20022;-84
2022/10/27 10:45:34;;;;;;;1.33;0.70;;;25.80;99.90;;;;;;4987087;28;20031;-82
2022/10/27 10:48:14;;;;;;;2.35;0.70;;;25.00;99.90;;;;;;4983597;28;20019;-81
2022/10/27 10:50:51;;;;;;;3.10;0.80;;;24.30;99.90;;;;;;4978146;28;20034;-82
2022/10/27 10:53:33;;;;;;;1.63;0.80;;;24.00;99.90;;;;;;4955807;28;20057;-81
2022/10/27 10:56:20;;;;;;;3.15;0.88;;;23.90;99.90;;;;;;4963394;28;20018;-82
2022/10/27 10:59:06;;;;;;;4.15;0.95;;;23.60;99.90;;;;;;4970566;28;20081;-82
2022/10/27 11:01:47;;;;;;;2.35;0.70;;;23.40;99.90;;;;;;4979493;28;20576;-82
2022/10/27 11:04:17;;;;;;;2.05;0.70;;;23.30;99.90;;;;;;4974765;28;20017;-81
2022/10/27 11:07:16;;;;;;;3.15;0.70;;;23.40;99.90;;;;;;4979259;28;20018;-81
2022/10/27 11:10:20;;;;;;;1.60;0.65;;;23.40;99.90;;;;;;4972829;28;20031;-82
2022/10/27 11:12:54;;;;;;;2.10;0.70;;;23.30;99.90;;;;;;4979328;28;20021;-83
2022/10/27 11:15:47;;;;;;;1.77;0.70;;;23.50;99.90;;;;;;4997692;28;20019;-81
2022/10/27 11:18:29;;;;;;;2.75;0.93;;;23.20;99.90;;;;;;4971296;28;20038;-82
2022/10/27 11:21:30;;;;;;;1.67;0.90;;;22.90;99.90;;;;;;4993165;28;20018;-82
2022/10/27 11:23:57;;;;;;;2.08;0.68;;;22.60;99.90;;;;;;4895587;28;20032;-82
2022/10/27 11:26:35;;;;;;;3.35;0.80;;;22.50;99.90;;;;;;4995571;28;20025;-82
2022/10/27 11:29:10;;;;;;;2.35;0.70;;;22.80;99.90;;;;;;4972935;28;20022;-82
2022/10/27 11:31:55;;;;;;;2.22;0.77;;;23.40;99.90;;;;;;4994332;28;20041;-81
2022/10/27 11:34:37;;;;;;;4.97;0.90;;;23.50;99.90;;;;;;4998511;28;20050;-82
2022/10/27 11:37:12;;;;;;;2.60;0.65;;;23.10;99.90;;;;;;4983634;28;20018;-82
2022/10/27 11:39:58;;;;;;;1.63;0.70;;;22.70;99.90;;;;;;4982849;28;20397;-81
2022/10/27 11:42:52;;;;;;;1.00;0.47;;;22.30;99.90;;;;;;4990052;28;20033;-81
2022/10/27 11:45:18;;;;;;;1.67;0.60;;;22.00;99.90;;;;;;5019618;28;20015;-81
2022/10/27 11:47:57;;;;;;;3.65;0.90;;;21.80;99.90;;;;;;5005174;28;20050;-83
2022/10/27 11:50:47;;;;;;;2.10;0.70;;;21.70;99.90;;;;;;5000930;28;20053;-81
2022/10/27 11:53:13;;;;;;;2.15;0.60;;;21.90;99.90;;;;;;4984677;28;20050;-81
2022/10/27 11:56:16;;;;;;;2.50;0.70;;;22.10;99.90;;;;;;5004527;28;20091;-81
2022/10/27 11:58:55;;;;;;;1.63;0.60;;;22.00;99.90;;;;;;4974982;28;20027;-82
2022/10/27 12:01:48;;;;;;;1.83;0.80;;;21.90;99.90;;;;;;4977779;28;20053;-80
2022/10/27 12:04:49;;;;;;;2.40;0.90;;;21.70;99.90;;;;;;4980358;28;20062;-82
2022/10/27 12:07:34;;;;;;;3.83;0.95;;;21.70;99.90;;;;;;4982860;28;20167;-81
2022/10/27 12:10:09;;;;;;;2.80;0.93;;;21.70;99.90;;;;;;4976778;28;20073;-82
2022/10/27 12:12:41;;;;;;;2.15;0.70;;;21.80;99.90;;;;;;4979035;28;20034;-81
2022/10/27 12:15:41;;;;;;;2.70;0.70;;;21.90;99.90;;;;;;4978374;28;20072;-82
2022/10/27 12:18:42;;;;;;;1.50;0.80;;;22.00;99.90;;;;;;4976803;28;20018;-82
2022/10/27 12:21:25;;;;;;;1.98;0.70;;;22.00;99.90;;;;;;4961120;28;20041;-81
2022/10/27 12:24:12;;;;;;;2.17;0.82;;;21.80;99.90;;;;;;4998962;28;20011;-83
2022/10/27 12:26:46;;;;;;;2.28;0.80;;;21.60;99.90;;;;;;4971379;28;20053;-82
2022/10/27 12:29:14;;;;;;;2.70;0.90;;;21.40;99.90;;;;;;4973240;28;20023;-81
2022/10/27 12:31:55;;;;;;;2.30;0.80;;;21.30;99.90;;;;;;4975830;28;20073;-81
2022/10/27 12:34:34;;;;;;;3.38;0.90;;;21.30;99.90;;;;;;4992662;28;20069;-81
2022/10/27 12:37:13;;;;;;;1.58;0.80;;;21.30;99.90;;;;;;4959406;28;20133;-81
2022/10/27 12:39:53;;;;;;;1.67;0.70;;;21.30;99.90;;;;;;4992990;28;20095;-81
2022/10/27 12:42:19;;;;;;;1.88;1.02;;;21.20;99.90;;;;;;4983908;28;20477;-81
2022/10/27 12:45:19;;;;;;;2.28;0.73;;;21.10;99.90;;;;;;4976550;28;20057;-81
2022/10/27 12:48:02;;;;;;;1.42;0.57;;;21.10;99.90;;;;;;4978262;28;20036;-81
2022/10/27 12:50:51;;;;;;;1.70;0.60;;;20.90;99.90;;;;;;4972858;28;20145;-82
2022/10/27 12:53:28;;;;;;;3.38;0.65;;;20.80;99.90;;;;;;4985294;28;20038;-82
2022/10/27 12:56:04;;;;;;;1.83;0.70;;;20.80;99.90;;;;;;4973355;28;20022;-82
2022/10/27 12:58:47;;;;;;;3.03;0.90;;;20.60;99.90;;;;;;4960081;28;20521;-82
2022/10/27 13:01:52;;;;;;;1.80;0.70;;;20.60;99.90;;;;;;4994948;28;20042;-81
2022/10/27 13:04:55;;;;;;;2.40;1.00;;;20.60;99.90;;;;;;4970798;28;20029;-81
2022/10/27 13:07:55;;;;;;;2.60;0.90;;;20.60;99.90;;;;;;4995648;28;20021;-80
2022/10/27 13:10:49;;;;;;;1.55;0.77;;;20.60;99.90;;;;;;4976278;28;20089;-80
2022/10/27 13:13:42;;;;;;;1.20;0.60;;;20.60;99.90;;;;;;4987895;28;20033;-81
2022/10/27 13:16:38;;;;;;;2.85;0.90;;;20.60;99.90;;;;;;4972333;28;20018;-81
2022/10/27 13:19:35;;;;;;;1.77;0.70;;;20.60;99.90;;;;;;4975778;28;20473;-81
2022/10/27 13:22:18;;;;;;;3.80;0.80;;;20.60;99.90;;;;;;4970858;28;20030;-80